createdAt,value
2023-04-10T00:00:35.117Z,555.00
2023-04-10T00:01:35.208Z,553.00
2023-04-10T00:02:35.226Z,547.00
2023-04-10T00:03:35.173Z,549.00
2023-04-10T00:04:35.105Z,552.00
2023-04-10T00:05:35.098Z,552.00
2023-04-10T00:06:35.130Z,556.00
2023-04-10T00:07:35.057Z,551.00
2023-04-10T00:08:35.012Z,551.00
2023-04-10T00:09:35.070Z,549.00
2023-04-10T00:10:35.016Z,552.00
2023-04-10T00:11:35.045Z,550.00
2023-04-10T00:12:35.118Z,554.00
2023-04-10T00:13:35.012Z,548.00
2023-04-10T00:14:35.013Z,551.00
2023-04-10T00:15:35.045Z,552.00
2023-04-10T00:16:35.035Z,551.00
2023-04-10T00:17:34.996Z,552.00
2023-04-10T00:18:35.012Z,553.00
2023-04-10T00:19:34.988Z,550.00
2023-04-10T00:20:34.954Z,553.00
2023-04-10T00:21:34.960Z,555.00
2023-04-10T00:22:34.973Z,557.00
2023-04-10T00:23:34.980Z,555.00
2023-04-10T00:24:34.929Z,554.00
2023-04-10T00:25:34.910Z,551.00
2023-04-10T00:26:34.912Z,555.00
2023-04-10T00:27:34.917Z,552.00
2023-04-10T00:28:34.904Z,551.00
2023-04-10T00:29:34.878Z,554.00
2023-04-10T00:30:34.893Z,553.00
2023-04-10T00:31:34.964Z,555.00
2023-04-10T00:32:34.887Z,557.00
2023-04-10T00:33:34.865Z,551.00
2023-04-10T00:34:34.882Z,552.00
2023-04-10T00:35:34.916Z,555.00
2023-04-10T00:36:34.863Z,547.00
2023-04-10T00:37:34.859Z,550.00
2023-04-10T00:38:34.865Z,552.00
2023-04-10T00:39:34.821Z,554.00
2023-04-10T00:40:34.819Z,554.00
2023-04-10T00:41:34.831Z,552.00
2023-04-10T00:42:34.903Z,552.00
2023-04-10T00:43:34.815Z,555.00
2023-04-10T00:44:34.821Z,556.00
2023-04-10T00:45:34.771Z,558.00
2023-04-10T00:46:34.905Z,553.00
2023-04-10T00:47:34.828Z,553.00
2023-04-10T00:48:34.749Z,556.00
2023-04-10T00:49:34.751Z,556.00
2023-04-10T00:50:34.748Z,556.00
2023-04-10T00:51:34.767Z,554.00
2023-04-10T00:52:34.761Z,555.00
2023-04-10T00:53:34.770Z,554.00
2023-04-10T00:54:34.714Z,554.00
2023-04-10T00:55:34.722Z,555.00
2023-04-10T00:56:34.760Z,555.00
2023-04-10T00:57:34.914Z,553.00
2023-04-10T00:58:34.818Z,557.00
2023-04-10T00:59:34.827Z,553.00
2023-04-10T01:00:34.860Z,557.00
2023-04-10T01:01:34.870Z,554.00
2023-04-10T01:02:35.111Z,554.00
2023-04-10T01:03:35.031Z,556.00
2023-04-10T01:04:35.131Z,556.00
2023-04-10T01:05:34.957Z,554.00
2023-04-10T01:06:34.968Z,554.00
2023-04-10T01:07:34.978Z,552.00
2023-04-10T01:08:34.973Z,554.00
2023-04-10T01:09:35.023Z,555.00
2023-04-10T01:10:35.023Z,552.00
2023-04-10T01:11:35.101Z,552.00
2023-04-10T01:12:35.035Z,556.00
2023-04-10T01:13:35.118Z,557.00
2023-04-10T01:14:35.140Z,556.00
2023-04-10T01:15:35.117Z,555.00
2023-04-10T01:16:35.203Z,556.00
2023-04-10T01:17:35.167Z,554.00
2023-04-10T01:18:35.255Z,556.00
2023-04-10T01:19:35.256Z,556.00
2023-04-10T01:20:35.255Z,553.00
2023-04-10T01:21:35.287Z,554.00
2023-04-10T01:22:35.271Z,552.00
2023-04-10T01:23:35.324Z,553.00
2023-04-10T01:24:35.297Z,554.00
2023-04-10T01:25:35.324Z,553.00
2023-04-10T01:26:35.430Z,556.00
2023-04-10T01:27:35.342Z,558.00
2023-04-10T01:28:35.522Z,557.00
2023-04-10T01:29:35.424Z,552.00
2023-04-10T01:30:35.505Z,554.00
2023-04-10T01:31:35.469Z,558.00
2023-04-10T01:32:35.530Z,558.00
2023-04-10T01:33:35.519Z,553.00
2023-04-10T01:34:35.623Z,556.00
2023-04-10T01:35:35.673Z,555.00
2023-04-10T01:36:35.646Z,558.00
2023-04-10T01:37:35.616Z,557.00
2023-04-10T01:38:36.094Z,554.00
2023-04-10T01:39:35.706Z,557.00
2023-04-10T01:40:35.725Z,553.00
2023-04-10T01:41:35.751Z,555.00
2023-04-10T01:42:35.819Z,554.00
2023-04-10T01:43:35.824Z,556.00
2023-04-10T01:44:35.831Z,553.00
2023-04-10T01:45:35.829Z,557.00
2023-04-10T01:46:35.952Z,552.00
2023-04-10T01:47:35.905Z,557.00
2023-04-10T01:48:35.967Z,556.00
2023-04-10T01:49:36.313Z,555.00
2023-04-10T01:50:36.317Z,552.00
2023-04-10T01:51:35.990Z,551.00
2023-04-10T01:52:36.027Z,554.00
2023-04-10T01:53:36.040Z,556.00
2023-04-10T01:54:36.012Z,554.00
2023-04-10T01:55:36.048Z,552.00
2023-04-10T01:56:36.128Z,557.00
2023-04-10T01:57:36.158Z,555.00
2023-04-10T01:58:36.133Z,555.00
2023-04-10T01:59:36.175Z,556.00
2023-04-10T02:00:36.254Z,552.00
2023-04-10T02:01:36.270Z,555.00
2023-04-10T02:02:36.330Z,559.00
2023-04-10T02:03:36.554Z,557.00
2023-04-10T02:04:36.449Z,554.00
2023-04-10T02:05:36.394Z,551.00
2023-04-10T02:06:36.359Z,556.00
2023-04-10T02:07:36.398Z,557.00
2023-04-10T02:08:36.556Z,554.00
2023-04-10T02:09:36.453Z,554.00
2023-04-10T02:10:36.490Z,557.00
2023-04-10T02:11:36.544Z,558.00
2023-04-10T02:12:36.558Z,557.00
2023-04-10T02:13:36.653Z,556.00
2023-04-10T02:14:36.605Z,559.00
2023-04-10T02:15:36.762Z,559.00
2023-04-10T02:16:36.697Z,558.00
2023-04-10T02:17:36.754Z,556.00
2023-04-10T02:18:36.802Z,555.00
2023-04-10T02:19:36.797Z,557.00
2023-04-10T02:20:36.823Z,555.00
2023-04-10T02:21:36.918Z,557.00
2023-04-10T02:22:36.929Z,554.00
2023-04-10T02:23:36.917Z,551.00
2023-04-10T02:24:36.996Z,560.00
2023-04-10T02:25:36.988Z,557.00
2023-04-10T02:26:37.040Z,555.00
2023-04-10T02:27:37.078Z,557.00
2023-04-10T02:28:37.091Z,559.00
2023-04-10T02:29:37.129Z,559.00
2023-04-10T02:30:37.179Z,559.00
2023-04-10T02:31:37.311Z,557.00
2023-04-10T02:32:37.269Z,557.00
2023-04-10T02:33:37.311Z,559.00
2023-04-10T02:34:37.328Z,560.00
2023-04-10T02:35:37.375Z,555.00
2023-04-10T02:36:37.535Z,555.00
2023-04-10T02:37:37.580Z,552.00
2023-04-10T02:38:37.569Z,559.00
2023-04-10T02:39:37.598Z,555.00
2023-04-10T02:40:37.655Z,557.00
2023-04-10T02:41:37.592Z,561.00
2023-04-10T02:42:37.738Z,556.00
2023-04-10T02:43:37.676Z,557.00
2023-04-10T02:44:37.786Z,559.00
2023-04-10T02:45:38.147Z,555.00
2023-04-10T02:46:37.811Z,559.00
2023-04-10T02:47:37.786Z,553.00
2023-04-10T02:48:37.841Z,558.00
2023-04-10T02:49:37.857Z,556.00
2023-04-10T02:50:37.919Z,557.00
2023-04-10T02:51:37.934Z,555.00
2023-04-10T02:52:38.151Z,554.00
2023-04-10T02:53:38.052Z,553.00
2023-04-10T02:54:38.055Z,553.00
2023-04-10T02:55:38.113Z,554.00
2023-04-10T02:56:38.591Z,553.00
2023-04-10T02:57:38.177Z,555.00
2023-04-10T02:58:38.195Z,554.00
2023-04-10T02:59:38.226Z,556.00
2023-04-10T03:00:38.301Z,560.00
2023-04-10T03:01:38.339Z,558.00
2023-04-10T03:02:38.456Z,553.00
2023-04-10T03:03:38.507Z,554.00
2023-04-10T03:04:38.390Z,556.00
2023-04-10T03:05:38.390Z,557.00
2023-04-10T03:06:38.519Z,557.00
2023-04-10T03:07:38.485Z,557.00
2023-04-10T03:08:38.558Z,558.00
2023-04-10T03:09:38.727Z,555.00
2023-04-10T03:10:38.598Z,556.00
2023-04-10T03:11:38.701Z,555.00
2023-04-10T03:12:38.880Z,558.00
2023-04-10T03:13:38.766Z,556.00
2023-04-10T03:14:38.812Z,557.00
2023-04-10T03:15:38.825Z,553.00
2023-04-10T03:16:38.977Z,553.00
2023-04-10T03:17:38.953Z,549.00
2023-04-10T03:18:38.975Z,556.00
2023-04-10T03:19:38.997Z,554.00
2023-04-10T03:20:53.631Z,558.00
2023-04-10T03:21:39.275Z,559.00
2023-04-10T03:22:39.312Z,560.00
2023-04-10T03:23:39.383Z,561.00
2023-04-10T03:24:39.374Z,562.00
2023-04-10T03:25:39.411Z,560.00
2023-04-10T03:26:39.469Z,560.00
2023-04-10T03:27:39.517Z,559.00
2023-04-10T03:28:39.529Z,559.00
2023-04-10T03:29:39.544Z,561.00
2023-04-10T03:30:39.589Z,559.00
2023-04-10T03:31:39.679Z,561.00
2023-04-10T03:32:39.707Z,560.00
2023-04-10T03:33:39.809Z,556.00
2023-04-10T03:34:39.760Z,555.00
2023-04-10T03:35:39.810Z,554.00
2023-04-10T03:36:39.837Z,555.00
2023-04-10T03:37:39.888Z,558.00
2023-04-10T03:38:39.949Z,552.00
2023-04-10T03:39:39.952Z,555.00
2023-04-10T03:40:40.008Z,560.00
2023-04-10T03:41:40.058Z,556.00
2023-04-10T03:42:40.076Z,557.00
2023-04-10T03:43:40.125Z,560.00
2023-04-10T03:44:40.136Z,553.00
2023-04-10T03:45:40.207Z,556.00
2023-04-10T03:46:40.292Z,558.00
2023-04-10T03:47:40.350Z,554.00
2023-04-10T03:48:40.377Z,557.00
2023-04-10T03:49:40.402Z,557.00
2023-04-10T03:50:40.426Z,557.00
2023-04-10T03:51:40.460Z,554.00
2023-04-10T03:52:40.582Z,558.00
2023-04-10T03:53:40.624Z,555.00
2023-04-10T03:54:40.619Z,559.00
2023-04-10T03:55:40.707Z,554.00
2023-04-10T03:56:40.681Z,558.00
2023-04-10T03:57:40.792Z,554.00
2023-04-10T03:58:40.847Z,554.00
2023-04-10T03:59:40.806Z,554.00
2023-04-10T04:00:40.862Z,554.00
2023-04-10T04:01:40.991Z,556.00
2023-04-10T04:02:41.052Z,553.00
2023-04-10T04:03:41.133Z,557.00
2023-04-10T04:04:41.207Z,555.00
2023-04-10T04:05:41.054Z,560.00
2023-04-10T04:06:41.122Z,554.00
2023-04-10T04:07:41.162Z,556.00
2023-04-10T04:08:41.172Z,559.00
2023-04-10T04:09:41.226Z,556.00
2023-04-10T04:10:41.284Z,559.00
2023-04-10T04:11:41.341Z,556.00
2023-04-10T04:12:41.316Z,554.00
2023-04-10T04:13:41.377Z,557.00
2023-04-10T04:14:41.416Z,558.00
2023-04-10T04:15:41.476Z,556.00
2023-04-10T04:16:41.558Z,555.00
2023-04-10T04:17:41.568Z,556.00
2023-04-10T04:18:41.774Z,556.00
2023-04-10T04:19:41.620Z,559.00
2023-04-10T04:20:41.718Z,558.00
2023-04-10T04:21:41.736Z,557.00
2023-04-10T04:22:41.831Z,555.00
2023-04-10T04:23:41.837Z,554.00
2023-04-10T04:24:41.890Z,549.00
2023-04-10T04:25:41.953Z,552.00
2023-04-10T04:26:42.007Z,554.00
2023-04-10T04:27:42.018Z,553.00
2023-04-10T04:28:42.032Z,550.00
2023-04-10T04:29:42.142Z,547.00
2023-04-10T04:30:42.208Z,550.00
2023-04-10T04:31:42.222Z,548.00
2023-04-10T04:32:42.305Z,550.00
2023-04-10T04:33:42.325Z,549.00
2023-04-10T04:34:42.315Z,552.00
2023-04-10T04:35:42.450Z,546.00
2023-04-10T04:36:42.381Z,546.00
2023-04-10T04:37:42.472Z,545.00
2023-04-10T04:38:42.562Z,548.00
2023-04-10T04:39:42.556Z,543.00
2023-04-10T04:40:42.667Z,542.00
2023-04-10T04:41:42.686Z,542.00
2023-04-10T04:42:42.722Z,544.00
2023-04-10T04:43:42.852Z,543.00
2023-04-10T04:44:42.795Z,544.00
2023-04-10T04:45:42.883Z,538.00
2023-04-10T04:46:44.503Z,542.00
2023-04-10T04:47:43.027Z,545.00
2023-04-10T04:48:43.106Z,540.00
2023-04-10T04:49:43.035Z,542.00
2023-04-10T04:50:43.066Z,544.00
2023-04-10T04:51:43.128Z,539.00
2023-04-10T04:52:43.155Z,537.00
2023-04-10T04:53:43.222Z,538.00
2023-04-10T04:54:43.278Z,540.00
2023-04-10T04:55:43.286Z,540.00
2023-04-10T04:56:43.342Z,543.00
2023-04-10T04:57:43.398Z,542.00
2023-04-10T04:58:43.461Z,536.00
2023-04-10T04:59:43.487Z,538.00
2023-04-10T05:00:43.527Z,540.00
2023-04-10T05:01:43.658Z,539.00
2023-04-10T05:02:43.800Z,544.00
2023-04-10T05:03:43.832Z,542.00
2023-04-10T05:04:43.729Z,536.00
2023-04-10T05:05:43.769Z,537.00
2023-04-10T05:06:43.829Z,539.00
2023-04-10T05:07:43.892Z,537.00
2023-04-10T05:08:43.928Z,539.00
2023-04-10T05:09:43.941Z,543.00
2023-04-10T05:10:44.013Z,536.00
2023-04-10T05:11:44.058Z,537.00
2023-04-10T05:12:44.136Z,538.00
2023-04-10T05:13:44.116Z,541.00
2023-04-10T05:14:44.175Z,539.00
2023-04-10T05:15:44.241Z,540.00
2023-04-10T05:16:44.254Z,539.00
2023-04-10T05:17:44.419Z,538.00
2023-04-10T05:18:44.503Z,538.00
2023-04-10T05:19:44.388Z,538.00
2023-04-10T05:20:44.419Z,539.00
2023-04-10T05:21:44.474Z,536.00
2023-04-10T05:22:44.533Z,536.00
2023-04-10T05:23:44.607Z,537.00
2023-04-10T05:24:44.659Z,536.00
2023-04-10T05:25:44.831Z,538.00
2023-04-10T05:26:44.717Z,538.00
2023-04-10T05:27:44.780Z,538.00
2023-04-10T05:28:44.852Z,536.00
2023-04-10T05:29:44.857Z,536.00
2023-04-10T05:30:45.017Z,535.00
2023-04-10T05:31:44.980Z,536.00
2023-04-10T05:32:45.054Z,541.00
2023-04-10T05:33:45.007Z,537.00
2023-04-10T05:34:45.073Z,540.00
2023-04-10T05:35:45.150Z,534.00
2023-04-10T05:36:45.202Z,534.00
2023-04-10T05:37:45.222Z,535.00
2023-04-10T05:38:45.243Z,538.00
2023-04-10T05:39:45.264Z,535.00
2023-04-10T05:40:45.329Z,534.00
2023-04-10T05:41:45.441Z,541.00
2023-04-10T05:42:45.451Z,538.00
2023-04-10T05:43:45.458Z,538.00
2023-04-10T05:44:45.520Z,536.00
2023-04-10T05:45:45.575Z,537.00
2023-04-10T05:46:45.751Z,538.00
2023-04-10T05:47:45.743Z,537.00
2023-04-10T05:48:45.704Z,534.00
2023-04-10T05:49:45.748Z,540.00
2023-04-10T05:50:45.751Z,537.00
2023-04-10T05:51:45.827Z,540.00
2023-04-10T05:52:45.876Z,542.00
2023-04-10T05:53:45.920Z,536.00
2023-04-10T05:54:45.926Z,537.00
2023-04-10T05:55:45.988Z,539.00
2023-04-10T05:56:46.060Z,538.00
2023-04-10T05:57:46.063Z,532.00
2023-04-10T05:58:46.113Z,538.00
2023-04-10T05:59:46.115Z,535.00
2023-04-10T06:00:46.196Z,540.00
2023-04-10T06:01:46.286Z,536.00
2023-04-10T06:02:46.430Z,536.00
2023-04-10T06:03:46.551Z,535.00
2023-04-10T06:04:46.574Z,542.00
2023-04-10T06:05:46.427Z,537.00
2023-04-10T06:06:46.474Z,538.00
2023-04-10T06:07:46.535Z,541.00
2023-04-10T06:08:46.545Z,537.00
2023-04-10T06:09:46.628Z,542.00
2023-04-10T06:10:46.600Z,536.00
2023-04-10T06:11:46.711Z,534.00
2023-04-10T06:12:46.711Z,538.00
2023-04-10T06:13:46.725Z,538.00
2023-04-10T06:14:46.796Z,538.00
2023-04-10T06:15:46.853Z,540.00
2023-04-10T06:16:46.902Z,540.00
2023-04-10T06:17:46.933Z,539.00
2023-04-10T06:18:46.963Z,538.00
2023-04-10T06:19:47.033Z,544.00
2023-04-10T06:20:47.052Z,536.00
2023-04-10T06:21:47.097Z,540.00
2023-04-10T06:22:47.121Z,535.00
2023-04-10T06:23:47.142Z,539.00
2023-04-10T06:24:47.223Z,539.00
2023-04-10T06:25:47.281Z,535.00
2023-04-10T06:26:47.261Z,538.00
2023-04-10T06:27:47.302Z,538.00
2023-04-10T06:28:47.353Z,539.00
2023-04-10T06:29:47.417Z,537.00
2023-04-10T06:30:47.415Z,538.00
2023-04-10T06:31:47.498Z,537.00
2023-04-10T06:32:47.512Z,539.00
2023-04-10T06:33:47.536Z,538.00
2023-04-10T06:34:47.548Z,540.00
2023-04-10T06:35:47.603Z,537.00
2023-04-10T06:36:47.659Z,541.00
2023-04-10T06:37:47.668Z,538.00
2023-04-10T06:38:47.710Z,538.00
2023-04-10T06:39:48.036Z,536.00
2023-04-10T06:40:47.797Z,541.00
2023-04-10T06:41:47.907Z,540.00
2023-04-10T06:42:47.907Z,537.00
2023-04-10T06:43:47.918Z,535.00
2023-04-10T06:44:47.962Z,544.00
2023-04-10T06:45:47.962Z,538.00
2023-04-10T06:46:48.137Z,543.00
2023-04-10T06:47:48.144Z,539.00
2023-04-10T06:48:48.158Z,539.00
2023-04-10T06:49:48.156Z,538.00
2023-04-10T06:50:48.189Z,542.00
2023-04-10T06:51:48.219Z,538.00
2023-04-10T06:52:48.272Z,542.00
2023-04-10T06:53:48.292Z,539.00
2023-04-10T06:54:48.332Z,544.00
2023-04-10T06:55:48.333Z,541.00
2023-04-10T06:56:48.422Z,541.00
2023-04-10T06:57:48.465Z,540.00
2023-04-10T06:58:48.477Z,540.00
2023-04-10T06:59:48.541Z,541.00
2023-04-10T07:00:48.667Z,541.00
2023-04-10T07:01:48.652Z,540.00
2023-04-10T07:02:48.699Z,540.00
2023-04-10T07:03:48.731Z,540.00
2023-04-10T07:04:48.717Z,541.00
2023-04-10T07:05:48.721Z,543.00
2023-04-10T07:06:48.789Z,544.00
2023-04-10T07:07:49.120Z,543.00
2023-04-10T07:08:48.852Z,542.00
2023-04-10T07:09:48.928Z,541.00
2023-04-10T07:10:48.913Z,542.00
2023-04-10T07:11:48.929Z,539.00
2023-04-10T07:12:48.981Z,540.00
2023-04-10T07:13:48.997Z,537.00
2023-04-10T07:14:49.046Z,539.00
2023-04-10T07:15:49.053Z,539.00
2023-04-10T07:16:49.219Z,542.00
2023-04-10T07:17:49.251Z,539.00
2023-04-10T07:18:49.184Z,538.00
2023-04-10T07:19:49.192Z,542.00
2023-04-10T07:20:49.193Z,543.00
2023-04-10T07:21:49.234Z,542.00
2023-04-10T07:22:49.304Z,543.00
2023-04-10T07:23:49.328Z,540.00
2023-04-10T07:24:49.347Z,542.00
2023-04-10T07:25:49.386Z,535.00
2023-04-10T07:26:49.442Z,541.00
2023-04-10T07:27:49.442Z,540.00
2023-04-10T07:28:49.478Z,538.00
2023-04-10T07:29:49.557Z,538.00
2023-04-10T07:30:49.518Z,541.00
2023-04-10T07:31:49.629Z,542.00
2023-04-10T07:32:49.802Z,543.00
2023-04-10T07:33:49.664Z,538.00
2023-04-10T07:34:49.713Z,535.00
2023-04-10T07:35:49.730Z,539.00
2023-04-10T07:36:49.709Z,540.00
2023-04-10T07:37:49.758Z,542.00
2023-04-10T07:38:49.763Z,538.00
2023-04-10T07:39:49.835Z,539.00
2023-04-10T07:40:49.832Z,538.00
2023-04-10T07:41:49.845Z,541.00
2023-04-10T07:42:50.033Z,539.00
2023-04-10T07:43:49.914Z,542.00
2023-04-10T07:44:49.896Z,540.00
2023-04-10T07:45:50.069Z,543.00
2023-04-10T07:46:49.980Z,539.00
2023-04-10T07:47:50.063Z,541.00
2023-04-10T07:48:50.032Z,540.00
2023-04-10T07:49:50.110Z,540.00
2023-04-10T07:50:50.109Z,545.00
2023-04-10T07:51:50.116Z,537.00
2023-04-10T07:52:50.176Z,542.00
2023-04-10T07:53:50.176Z,541.00
2023-04-10T07:54:50.220Z,541.00
2023-04-10T07:55:50.187Z,535.00
2023-04-10T07:56:50.258Z,543.00
2023-04-10T07:57:50.265Z,541.00
2023-04-10T07:58:50.281Z,541.00
2023-04-10T07:59:50.281Z,543.00
2023-04-10T08:00:50.334Z,542.00
2023-04-10T08:01:50.482Z,541.00
2023-04-10T08:02:50.492Z,541.00
2023-04-10T08:03:50.600Z,542.00
2023-04-10T08:04:50.500Z,541.00
2023-04-10T08:05:50.440Z,543.00
2023-04-10T08:06:50.422Z,538.00
2023-04-10T08:07:50.438Z,540.00
2023-04-10T08:08:50.476Z,544.00
2023-04-10T08:09:50.494Z,542.00
2023-04-10T08:10:50.485Z,540.00
2023-04-10T08:11:50.495Z,541.00
2023-04-10T08:12:50.508Z,539.00
2023-04-10T08:13:50.607Z,539.00
2023-04-10T08:14:50.578Z,539.00
2023-04-10T08:15:50.588Z,543.00
2023-04-10T08:16:50.631Z,540.00
2023-04-10T08:17:50.656Z,541.00
2023-04-10T08:18:50.653Z,542.00
2023-04-10T08:19:50.662Z,540.00
2023-04-10T08:20:50.677Z,538.00
2023-04-10T08:21:50.735Z,540.00
2023-04-10T08:22:50.736Z,545.00
2023-04-10T08:23:50.732Z,544.00
2023-04-10T08:24:50.766Z,544.00
2023-04-10T08:25:50.790Z,544.00
2023-04-10T08:26:50.764Z,542.00
2023-04-10T08:27:50.764Z,543.00
2023-04-10T08:28:50.865Z,543.00
2023-04-10T08:29:50.825Z,543.00
2023-04-10T08:30:50.918Z,542.00
2023-04-10T08:31:50.851Z,544.00
2023-04-10T08:32:50.956Z,541.00
2023-04-10T08:33:50.916Z,547.00
2023-04-10T08:34:50.929Z,542.00
2023-04-10T08:35:50.989Z,543.00
2023-04-10T08:36:50.946Z,543.00
2023-04-10T08:38:07.604Z,543.00
2023-04-10T08:38:51.998Z,543.00
2023-04-10T08:39:50.919Z,543.00
2023-04-10T08:40:50.901Z,543.00
2023-04-10T08:41:50.907Z,545.00
2023-04-10T08:42:50.968Z,541.00
2023-04-10T08:43:50.884Z,546.00
2023-04-10T08:44:50.881Z,546.00
2023-04-10T08:45:50.867Z,544.00
2023-04-10T08:46:50.907Z,545.00
2023-04-10T08:47:50.957Z,541.00
2023-04-10T08:48:50.861Z,543.00
2023-04-10T08:49:50.855Z,544.00
2023-04-10T08:50:50.808Z,542.00
2023-04-10T08:51:50.829Z,544.00
2023-04-10T08:52:50.845Z,544.00
2023-04-10T08:53:50.828Z,541.00
2023-04-10T08:54:50.802Z,544.00
2023-04-10T08:55:50.812Z,543.00
2023-04-10T08:56:50.799Z,541.00
2023-04-10T08:58:00.518Z,545.00
2023-04-10T08:58:51.820Z,545.00
2023-04-10T08:59:50.785Z,545.00
2023-04-10T09:00:50.801Z,545.00
2023-04-10T09:01:50.829Z,542.00
2023-04-10T09:02:50.933Z,544.00
2023-04-10T09:03:50.897Z,543.00
2023-04-10T09:04:50.812Z,547.00
2023-04-10T09:05:50.727Z,543.00
2023-04-10T09:06:50.746Z,544.00
2023-04-10T09:07:50.732Z,544.00
2023-04-10T09:08:50.748Z,542.00
2023-04-10T09:09:50.702Z,543.00
2023-04-10T09:10:50.851Z,545.00
2023-04-10T09:11:50.713Z,543.00
2023-04-10T09:12:50.688Z,546.00
2023-04-10T09:13:50.651Z,543.00
2023-04-10T09:14:50.642Z,548.00
2023-04-10T09:15:50.657Z,541.00
2023-04-10T09:16:50.642Z,548.00
2023-04-10T09:17:50.658Z,546.00
2023-04-10T09:18:50.667Z,542.00
2023-04-10T09:19:50.697Z,544.00
2023-04-10T09:20:50.628Z,545.00
2023-04-10T09:21:50.573Z,539.00
2023-04-10T09:22:50.622Z,540.00
2023-04-10T09:23:50.648Z,545.00
2023-04-10T09:24:50.575Z,544.00
2023-04-10T09:25:51.325Z,541.00
2023-04-10T09:26:50.585Z,542.00
2023-04-10T09:27:50.594Z,542.00
2023-04-10T09:28:50.582Z,540.00
2023-04-10T09:29:50.585Z,544.00
2023-04-10T09:30:50.637Z,543.00
2023-04-10T09:31:50.771Z,545.00
2023-04-10T09:32:50.555Z,543.00
2023-04-10T09:33:50.570Z,542.00
2023-04-10T09:34:50.558Z,542.00
2023-04-10T09:35:50.579Z,544.00
2023-04-10T09:36:50.552Z,544.00
2023-04-10T09:37:50.589Z,545.00
2023-04-10T09:38:50.599Z,546.00
2023-04-10T09:39:50.581Z,543.00
2023-04-10T09:40:51.106Z,545.00
2023-04-10T09:41:50.567Z,540.00
2023-04-10T09:42:50.621Z,545.00
2023-04-10T09:43:50.569Z,547.00
2023-04-10T09:44:50.540Z,544.00
2023-04-10T09:45:50.583Z,545.00
2023-04-10T09:46:50.594Z,545.00
2023-04-10T09:47:50.562Z,543.00
2023-04-10T09:48:50.551Z,543.00
2023-04-10T09:49:50.514Z,547.00
2023-04-10T09:50:50.561Z,542.00
2023-04-10T09:51:50.563Z,543.00
2023-04-10T09:52:50.522Z,542.00
2023-04-10T09:53:50.549Z,542.00
2023-04-10T09:54:50.542Z,547.00
2023-04-10T09:55:50.587Z,544.00
2023-04-10T09:56:50.538Z,544.00
2023-04-10T09:57:50.494Z,547.00
2023-04-10T09:58:50.584Z,541.00
2023-04-10T09:59:50.524Z,542.00
2023-04-10T10:00:50.513Z,543.00
2023-04-10T10:01:50.582Z,541.00
2023-04-10T10:02:50.654Z,545.00
2023-04-10T10:03:50.577Z,542.00
2023-04-10T10:04:50.513Z,544.00
2023-04-10T10:05:50.538Z,540.00
2023-04-10T10:06:50.516Z,543.00
2023-04-10T10:07:50.548Z,541.00
2023-04-10T10:08:50.471Z,540.00
2023-04-10T10:09:50.478Z,543.00
2023-04-10T10:10:50.471Z,542.00
2023-04-10T10:11:50.485Z,545.00
2023-04-10T10:12:50.476Z,545.00
2023-04-10T10:13:50.581Z,546.00
2023-04-10T10:14:50.517Z,544.00
2023-04-10T10:15:50.594Z,547.00
2023-04-10T10:16:50.583Z,543.00
2023-04-10T10:17:50.567Z,546.00
2023-04-10T10:18:50.549Z,544.00
2023-04-10T10:19:50.534Z,544.00
2023-04-10T10:20:50.568Z,545.00
2023-04-10T10:21:50.549Z,545.00
2023-04-10T10:22:50.602Z,547.00
2023-04-10T10:23:50.530Z,546.00
2023-04-10T10:24:50.535Z,547.00
2023-04-10T10:25:50.573Z,546.00
2023-04-10T10:26:50.589Z,546.00
2023-04-10T10:27:50.557Z,548.00
2023-04-10T10:28:50.564Z,546.00
2023-04-10T10:29:50.545Z,546.00
2023-04-10T10:30:50.513Z,548.00
2023-04-10T10:31:50.727Z,546.00
2023-04-10T10:32:50.664Z,548.00
2023-04-10T10:33:50.638Z,549.00
2023-04-10T10:34:50.555Z,547.00
2023-04-10T10:35:50.504Z,548.00
2023-04-10T10:36:50.578Z,545.00
2023-04-10T10:37:50.575Z,545.00
2023-04-10T10:38:50.691Z,545.00
2023-04-10T10:39:50.608Z,546.00
2023-04-10T10:40:50.593Z,544.00
2023-04-10T10:41:50.587Z,546.00
2023-04-10T10:42:50.765Z,547.00
2023-04-10T10:43:50.943Z,546.00
2023-04-10T10:44:50.910Z,546.00
2023-04-10T10:45:50.747Z,548.00
2023-04-10T10:46:50.825Z,544.00
2023-04-10T10:47:50.845Z,549.00
2023-04-10T10:48:50.877Z,550.00
2023-04-10T10:49:50.967Z,551.00
2023-04-10T10:50:50.984Z,546.00
2023-04-10T10:51:51.076Z,551.00
2023-04-10T10:52:51.111Z,547.00
2023-04-10T10:53:51.085Z,548.00
2023-04-10T10:54:59.503Z,549.00
2023-04-10T10:55:52.110Z,549.00
2023-04-10T10:56:51.135Z,549.00
2023-04-10T10:57:51.107Z,549.00
2023-04-10T10:58:51.123Z,550.00
2023-04-10T10:59:51.052Z,551.00
2023-04-10T11:00:51.174Z,552.00
2023-04-10T11:01:51.090Z,551.00
2023-04-10T11:02:51.216Z,549.00
2023-04-10T11:03:51.227Z,549.00
2023-04-10T11:04:51.017Z,552.00
2023-04-10T11:05:51.139Z,549.00
2023-04-10T11:06:51.170Z,549.00
2023-04-10T11:07:51.180Z,550.00
2023-04-10T11:08:51.256Z,553.00
2023-04-10T11:09:51.344Z,554.00
2023-04-10T11:10:51.300Z,550.00
2023-04-10T11:11:51.369Z,551.00
2023-04-10T11:12:51.426Z,549.00
2023-04-10T11:13:51.524Z,550.00
2023-04-10T11:14:51.633Z,548.00
2023-04-10T11:15:51.606Z,547.00
2023-04-10T11:16:51.748Z,549.00
2023-04-10T11:17:52.134Z,549.00
2023-04-10T11:19:02.782Z,548.00
2023-04-10T11:19:52.798Z,548.00
2023-04-10T11:20:51.795Z,548.00
2023-04-10T11:21:51.789Z,548.00
2023-04-10T11:22:51.780Z,545.00
2023-04-10T11:23:51.800Z,549.00
2023-04-10T11:24:51.741Z,546.00
2023-04-10T11:25:51.764Z,544.00
2023-04-10T11:26:51.733Z,544.00
2023-04-10T11:27:51.753Z,545.00
2023-04-10T11:28:51.740Z,550.00
2023-04-10T11:29:51.842Z,547.00
2023-04-10T11:30:51.854Z,545.00
2023-04-10T11:31:51.859Z,543.00
2023-04-10T11:32:51.869Z,546.00
2023-04-10T11:33:51.944Z,545.00
2023-04-10T11:34:51.967Z,545.00
2023-04-10T11:35:52.116Z,548.00
2023-04-10T11:36:52.202Z,545.00
2023-04-10T11:37:52.199Z,546.00
2023-04-10T11:38:52.442Z,549.00
2023-04-10T11:39:52.286Z,548.00
2023-04-10T11:40:52.287Z,548.00
2023-04-10T11:41:52.375Z,547.00
2023-04-10T11:42:52.435Z,545.00
2023-04-10T11:43:52.480Z,546.00
2023-04-10T11:44:52.538Z,545.00
2023-04-10T11:45:52.588Z,547.00
2023-04-10T11:46:52.743Z,547.00
2023-04-10T11:47:52.768Z,546.00
2023-04-10T11:48:53.001Z,543.00
2023-04-10T11:49:52.910Z,540.00
2023-04-10T11:50:52.926Z,542.00
2023-04-10T11:51:53.213Z,540.00
2023-04-10T11:52:54.562Z,544.00
2023-04-10T11:53:53.088Z,537.00
2023-04-10T11:54:53.129Z,538.00
2023-04-10T11:55:53.200Z,537.00
2023-04-10T11:56:53.313Z,536.00
2023-04-10T11:57:53.269Z,537.00
2023-04-10T11:58:53.653Z,536.00
2023-04-10T11:59:53.374Z,533.00
2023-04-10T12:00:53.448Z,528.00
2023-04-10T12:01:53.512Z,529.00
2023-04-10T12:02:53.599Z,528.00
2023-04-10T12:03:53.708Z,527.00
2023-04-10T12:04:53.646Z,528.00
2023-04-10T12:05:53.648Z,528.00
2023-04-10T12:06:53.725Z,534.00
2023-04-10T12:07:53.841Z,532.00
2023-04-10T12:08:54.073Z,531.00
2023-04-10T12:09:53.966Z,524.00
2023-04-10T12:10:54.028Z,527.00
2023-04-10T12:11:54.077Z,526.00
2023-04-10T12:12:54.154Z,527.00
2023-04-10T12:13:54.149Z,526.00
2023-04-10T12:14:54.216Z,526.00
2023-04-10T12:15:54.290Z,523.00
2023-04-10T12:16:54.362Z,522.00
2023-04-10T12:17:54.579Z,525.00
2023-04-10T12:18:54.706Z,524.00
2023-04-10T12:19:54.528Z,531.00
2023-04-10T12:20:54.605Z,533.00
2023-04-10T12:21:54.658Z,526.00
2023-04-10T12:22:54.677Z,522.00
2023-04-10T12:23:54.727Z,527.00
2023-04-10T12:24:54.836Z,526.00
2023-04-10T12:25:54.944Z,525.00
2023-04-10T12:26:54.911Z,523.00
2023-04-10T12:27:55.881Z,525.00
2023-04-10T12:28:55.474Z,525.00